sensor_id;sensor_type;location;lat;lon;timestamp;P1;durP1;ratioP1;P2;durP2;ratioP2
22439;SDS011;11387;51.612;7.210;2023-02-25T00:01:43;19.15;;;3.08;;
22439;SDS011;11387;51.612;7.210;2023-02-25T00:04:29;16.80;;;3.00;;
22439;SDS011;11387;51.612;7.210;2023-02-25T00:07:00;16.10;;;2.60;;
22439;SDS011;11387;51.612;7.210;2023-02-25T00:09:30;22.08;;;2.53;;
22439;SDS011;11387;51.612;7.210;2023-02-25T00:11:58;13.63;;;2.38;;
22439;SDS011;11387;51.612;7.210;2023-02-25T00:14:27;18.38;;;2.72;;
22439;SDS011;11387;51.612;7.210;2023-02-25T00:16:55;15.30;;;2.75;;
22439;SDS011;11387;51.612;7.210;2023-02-25T00:19:24;25.08;;;3.33;;
22439;SDS011;11387;51.612;7.210;2023-02-25T00:21:53;18.75;;;2.85;;
22439;SDS011;11387;51.612;7.210;2023-02-25T00:24:23;17.73;;;2.42;;
22439;SDS011;11387;51.612;7.210;2023-02-25T00:26:52;15.40;;;2.13;;
22439;SDS011;11387;51.612;7.210;2023-02-25T00:29:20;25.40;;;2.75;;
22439;SDS011;11387;51.612;7.210;2023-02-25T00:31:49;17.23;;;2.72;;
22439;SDS011;11387;51.612;7.210;2023-02-25T00:34:17;15.40;;;2.55;;
22439;SDS011;11387;51.612;7.210;2023-02-25T00:36:46;19.05;;;2.63;;
22439;SDS011;11387;51.612;7.210;2023-02-25T00:39:16;18.50;;;4.05;;
22439;SDS011;11387;51.612;7.210;2023-02-25T00:41:45;19.40;;;2.15;;
22439;SDS011;11387;51.612;7.210;2023-02-25T00:44:14;22.80;;;4.43;;
22439;SDS011;11387;51.612;7.210;2023-02-25T00:46:43;17.13;;;3.15;;
22439;SDS011;11387;51.612;7.210;2023-02-25T00:49:11;16.52;;;2.80;;
22439;SDS011;11387;51.612;7.210;2023-02-25T00:51:57;13.80;;;2.75;;
22439;SDS011;11387;51.612;7.210;2023-02-25T00:54:26;21.50;;;2.83;;
22439;SDS011;11387;51.612;7.210;2023-02-25T00:56:56;17.67;;;3.03;;
22439;SDS011;11387;51.612;7.210;2023-02-25T00:59:25;17.15;;;2.60;;
22439;SDS011;11387;51.612;7.210;2023-02-25T01:01:53;18.65;;;2.30;;
22439;SDS011;11387;51.612;7.210;2023-02-25T01:04:22;16.92;;;2.95;;
22439;SDS011;11387;51.612;7.210;2023-02-25T01:06:51;16.45;;;3.05;;
22439;SDS011;11387;51.612;7.210;2023-02-25T01:09:20;8.60;;;2.03;;
22439;SDS011;11387;51.612;7.210;2023-02-25T01:11:48;24.88;;;2.88;;
22439;SDS011;11387;51.612;7.210;2023-02-25T01:14:19;14.38;;;3.88;;
22439;SDS011;11387;51.612;7.210;2023-02-25T01:16:49;14.15;;;2.20;;
22439;SDS011;11387;51.612;7.210;2023-02-25T01:19:19;20.08;;;2.70;;
22439;SDS011;11387;51.612;7.210;2023-02-25T01:21:51;17.63;;;2.85;;
22439;SDS011;11387;51.612;7.210;2023-02-25T01:24:23;17.73;;;2.78;;
22439;SDS011;11387;51.612;7.210;2023-02-25T01:26:55;20.98;;;3.00;;
22439;SDS011;11387;51.612;7.210;2023-02-25T01:29:27;20.13;;;4.53;;
22439;SDS011;11387;51.612;7.210;2023-02-25T01:31:57;32.38;;;3.10;;
22439;SDS011;11387;51.612;7.210;2023-02-25T01:34:28;18.15;;;2.90;;
22439;SDS011;11387;51.612;7.210;2023-02-25T01:36:56;15.00;;;2.30;;
22439;SDS011;11387;51.612;7.210;2023-02-25T01:39:25;22.30;;;3.10;;
22439;SDS011;11387;51.612;7.210;2023-02-25T01:41:55;22.10;;;2.20;;
22439;SDS011;11387;51.612;7.210;2023-02-25T01:44:29;20.27;;;2.50;;
22439;SDS011;11387;51.612;7.210;2023-02-25T01:47:01;11.88;;;2.35;;
22439;SDS011;11387;51.612;7.210;2023-02-25T01:49:30;17.60;;;2.58;;
22439;SDS011;11387;51.612;7.210;2023-02-25T01:52:02;23.08;;;3.42;;
22439;SDS011;11387;51.612;7.210;2023-02-25T01:54:34;18.35;;;3.40;;
22439;SDS011;11387;51.612;7.210;2023-02-25T01:57:05;12.77;;;2.53;;
22439;SDS011;11387;51.612;7.210;2023-02-25T01:59:36;19.42;;;2.90;;
22439;SDS011;11387;51.612;7.210;2023-02-25T02:02:06;22.40;;;3.28;;
22439;SDS011;11387;51.612;7.210;2023-02-25T02:04:35;26.60;;;2.60;;
22439;SDS011;11387;51.612;7.210;2023-02-25T02:07:05;22.77;;;2.92;;
22439;SDS011;11387;51.612;7.210;2023-02-25T02:09:34;21.63;;;3.30;;
22439;SDS011;11387;51.612;7.210;2023-02-25T02:12:04;20.67;;;3.03;;
22439;SDS011;11387;51.612;7.210;2023-02-25T02:14:34;15.13;;;2.75;;
22439;SDS011;11387;51.612;7.210;2023-02-25T02:17:12;15.18;;;2.72;;
22439;SDS011;11387;51.612;7.210;2023-02-25T02:19:55;19.83;;;2.38;;
22439;SDS011;11387;51.612;7.210;2023-02-25T02:22:38;18.75;;;2.80;;
22439;SDS011;11387;51.612;7.210;2023-02-25T02:31:48;12.48;;;2.13;;
22439;SDS011;11387;51.612;7.210;2023-02-25T02:34:25;15.10;;;3.90;;
22439;SDS011;11387;51.612;7.210;2023-02-25T02:37:04;13.27;;;3.03;;
22439;SDS011;11387;51.612;7.210;2023-02-25T02:39:46;20.25;;;3.15;;
22439;SDS011;11387;51.612;7.210;2023-02-25T02:42:24;17.73;;;2.22;;
22439;SDS011;11387;51.612;7.210;2023-02-25T02:44:59;22.88;;;3.00;;
22439;SDS011;11387;51.612;7.210;2023-02-25T02:47:34;14.45;;;2.67;;
22439;SDS011;11387;51.612;7.210;2023-02-25T02:50:06;19.80;;;3.45;;
22439;SDS011;11387;51.612;7.210;2023-02-25T02:52:38;16.73;;;3.70;;
22439;SDS011;11387;51.612;7.210;2023-02-25T02:55:12;20.38;;;2.88;;
22439;SDS011;11387;51.612;7.210;2023-02-25T02:57:48;17.50;;;3.30;;
22439;SDS011;11387;51.612;7.210;2023-02-25T03:00:21;19.75;;;2.85;;
22439;SDS011;11387;51.612;7.210;2023-02-25T03:02:56;27.92;;;2.85;;
22439;SDS011;11387;51.612;7.210;2023-02-25T03:05:30;21.40;;;2.90;;
22439;SDS011;11387;51.612;7.210;2023-02-25T03:08:02;20.05;;;3.13;;
22439;SDS011;11387;51.612;7.210;2023-02-25T03:10:34;12.85;;;2.95;;
22439;SDS011;11387;51.612;7.210;2023-02-25T03:13:04;19.33;;;2.65;;
22439;SDS011;11387;51.612;7.210;2023-02-25T03:15:32;20.95;;;3.25;;
22439;SDS011;11387;51.612;7.210;2023-02-25T03:18:04;25.15;;;3.40;;
22439;SDS011;11387;51.612;7.210;2023-02-25T03:20:38;22.33;;;3.20;;
22439;SDS011;11387;51.612;7.210;2023-02-25T03:23:19;17.20;;;4.22;;
22439;SDS011;11387;51.612;7.210;2023-02-25T03:25:57;23.02;;;2.95;;
22439;SDS011;11387;51.612;7.210;2023-02-25T03:28:36;18.13;;;2.97;;
22439;SDS011;11387;51.612;7.210;2023-02-25T03:31:07;20.33;;;2.83;;
22439;SDS011;11387;51.612;7.210;2023-02-25T03:33:44;25.25;;;2.38;;
22439;SDS011;11387;51.612;7.210;2023-02-25T03:36:17;18.75;;;3.35;;
22439;SDS011;11387;51.612;7.210;2023-02-25T03:38:51;14.20;;;2.70;;
22439;SDS011;11387;51.612;7.210;2023-02-25T03:41:24;33.92;;;3.78;;
22439;SDS011;11387;51.612;7.210;2023-02-25T03:43:57;17.25;;;3.17;;
22439;SDS011;11387;51.612;7.210;2023-02-25T03:46:27;14.35;;;2.65;;
22439;SDS011;11387;51.612;7.210;2023-02-25T03:48:59;22.00;;;3.05;;
22439;SDS011;11387;51.612;7.210;2023-02-25T03:51:32;19.77;;;3.35;;
22439;SDS011;11387;51.612;7.210;2023-02-25T03:54:09;32.22;;;3.88;;
22439;SDS011;11387;51.612;7.210;2023-02-25T03:56:41;16.17;;;2.70;;
22439;SDS011;11387;51.612;7.210;2023-02-25T03:59:13;27.95;;;3.30;;
22439;SDS011;11387;51.612;7.210;2023-02-25T04:01:43;23.85;;;3.17;;
22439;SDS011;11387;51.612;7.210;2023-02-25T04:04:15;22.77;;;2.85;;
22439;SDS011;11387;51.612;7.210;2023-02-25T04:06:44;17.92;;;2.83;;
22439;SDS011;11387;51.612;7.210;2023-02-25T04:09:13;16.05;;;3.53;;
22439;SDS011;11387;51.612;7.210;2023-02-25T04:11:41;17.52;;;3.03;;
22439;SDS011;11387;51.612;7.210;2023-02-25T04:14:10;31.00;;;4.28;;
22439;SDS011;11387;51.612;7.210;2023-02-25T04:16:38;30.35;;;3.55;;
22439;SDS011;11387;51.612;7.210;2023-02-25T04:19:07;19.15;;;3.35;;
22439;SDS011;11387;51.612;7.210;2023-02-25T04:25:08;24.85;;;3.38;;
22439;SDS011;11387;51.612;7.210;2023-02-25T04:27:40;23.30;;;3.42;;
22439;SDS011;11387;51.612;7.210;2023-02-25T04:30:10;23.02;;;3.55;;
22439;SDS011;11387;51.612;7.210;2023-02-25T04:32:44;26.45;;;3.35;;
22439;SDS011;11387;51.612;7.210;2023-02-25T04:35:13;26.88;;;4.43;;
22439;SDS011;11387;51.612;7.210;2023-02-25T04:37:42;16.98;;;2.70;;
22439;SDS011;11387;51.612;7.210;2023-02-25T04:40:14;16.90;;;3.67;;
22439;SDS011;11387;51.612;7.210;2023-02-25T04:42:44;16.77;;;3.00;;
22439;SDS011;11387;51.612;7.210;2023-02-25T04:45:13;20.05;;;3.10;;
22439;SDS011;11387;51.612;7.210;2023-02-25T04:47:42;18.80;;;3.28;;
22439;SDS011;11387;51.612;7.210;2023-02-25T04:50:12;23.27;;;2.40;;
22439;SDS011;11387;51.612;7.210;2023-02-25T04:52:40;15.30;;;2.88;;
22439;SDS011;11387;51.612;7.210;2023-02-25T04:55:10;26.92;;;3.13;;
22439;SDS011;11387;51.612;7.210;2023-02-25T04:57:40;27.60;;;3.42;;
22439;SDS011;11387;51.612;7.210;2023-02-25T05:00:11;17.58;;;2.85;;
22439;SDS011;11387;51.612;7.210;2023-02-25T05:02:45;19.80;;;2.58;;
22439;SDS011;11387;51.612;7.210;2023-02-25T05:05:15;17.05;;;3.60;;
22439;SDS011;11387;51.612;7.210;2023-02-25T05:07:45;28.73;;;3.97;;
22439;SDS011;11387;51.612;7.210;2023-02-25T05:10:17;23.80;;;4.07;;
22439;SDS011;11387;51.612;7.210;2023-02-25T05:12:47;14.70;;;2.58;;
22439;SDS011;11387;51.612;7.210;2023-02-25T05:15:15;23.73;;;4.15;;
22439;SDS011;11387;51.612;7.210;2023-02-25T05:17:44;18.67;;;2.95;;
22439;SDS011;11387;51.612;7.210;2023-02-25T05:20:13;20.85;;;3.88;;
22439;SDS011;11387;51.612;7.210;2023-02-25T05:22:42;21.27;;;3.33;;
22439;SDS011;11387;51.612;7.210;2023-02-25T05:25:12;21.08;;;3.28;;
22439;SDS011;11387;51.612;7.210;2023-02-25T05:27:41;19.65;;;4.00;;
22439;SDS011;11387;51.612;7.210;2023-02-25T05:30:11;25.55;;;4.00;;
22439;SDS011;11387;51.612;7.210;2023-02-25T05:32:41;15.13;;;3.30;;
22439;SDS011;11387;51.612;7.210;2023-02-25T05:35:14;18.35;;;2.47;;
22439;SDS011;11387;51.612;7.210;2023-02-25T05:37:43;22.02;;;3.03;;
22439;SDS011;11387;51.612;7.210;2023-02-25T05:40:12;19.52;;;3.63;;
22439;SDS011;11387;51.612;7.210;2023-02-25T05:42:41;12.40;;;2.80;;
22439;SDS011;11387;51.612;7.210;2023-02-25T05:45:11;24.55;;;3.70;;
22439;SDS011;11387;51.612;7.210;2023-02-25T05:47:40;17.02;;;3.13;;
22439;SDS011;11387;51.612;7.210;2023-02-25T05:50:10;24.95;;;4.13;;
22439;SDS011;11387;51.612;7.210;2023-02-25T05:52:39;23.60;;;3.85;;
22439;SDS011;11387;51.612;7.210;2023-02-25T05:55:08;22.10;;;2.88;;
22439;SDS011;11387;51.612;7.210;2023-02-25T05:57:38;28.08;;;3.72;;
22439;SDS011;11387;51.612;7.210;2023-02-25T06:00:08;21.17;;;3.10;;
22439;SDS011;11387;51.612;7.210;2023-02-25T06:02:42;18.70;;;3.25;;
22439;SDS011;11387;51.612;7.210;2023-02-25T06:05:11;20.55;;;4.20;;
22439;SDS011;11387;51.612;7.210;2023-02-25T06:07:40;26.70;;;3.40;;
22439;SDS011;11387;51.612;7.210;2023-02-25T06:10:09;18.45;;;2.88;;
22439;SDS011;11387;51.612;7.210;2023-02-25T06:12:39;25.00;;;3.75;;
22439;SDS011;11387;51.612;7.210;2023-02-25T06:15:07;17.08;;;3.45;;
22439;SDS011;11387;51.612;7.210;2023-02-25T06:17:36;24.30;;;2.95;;
22439;SDS011;11387;51.612;7.210;2023-02-25T06:20:08;24.10;;;3.10;;
22439;SDS011;11387;51.612;7.210;2023-02-25T06:22:37;20.30;;;3.30;;
22439;SDS011;11387;51.612;7.210;2023-02-25T06:25:06;26.23;;;4.07;;
22439;SDS011;11387;51.612;7.210;2023-02-25T06:27:35;18.33;;;3.35;;
22439;SDS011;11387;51.612;7.210;2023-02-25T06:30:04;20.27;;;3.15;;
22439;SDS011;11387;51.612;7.210;2023-02-25T06:32:34;20.20;;;3.45;;
22439;SDS011;11387;51.612;7.210;2023-02-25T06:35:04;17.55;;;3.33;;
22439;SDS011;11387;51.612;7.210;2023-02-25T06:37:35;19.85;;;3.30;;
22439;SDS011;11387;51.612;7.210;2023-02-25T06:40:04;15.73;;;2.80;;
22439;SDS011;11387;51.612;7.210;2023-02-25T06:42:34;24.83;;;3.08;;
22439;SDS011;11387;51.612;7.210;2023-02-25T06:45:02;25.95;;;4.22;;
22439;SDS011;11387;51.612;7.210;2023-02-25T06:47:32;27.30;;;3.63;;
22439;SDS011;11387;51.612;7.210;2023-02-25T06:50:00;19.13;;;3.33;;
22439;SDS011;11387;51.612;7.210;2023-02-25T06:52:29;26.02;;;3.25;;
22439;SDS011;11387;51.612;7.210;2023-02-25T06:54:59;30.65;;;4.28;;
22439;SDS011;11387;51.612;7.210;2023-02-25T06:57:27;17.65;;;3.70;;
22439;SDS011;11387;51.612;7.210;2023-02-25T06:59:56;25.13;;;3.38;;
22439;SDS011;11387;51.612;7.210;2023-02-25T07:02:26;23.30;;;3.33;;
22439;SDS011;11387;51.612;7.210;2023-02-25T07:04:55;27.17;;;4.35;;
22439;SDS011;11387;51.612;7.210;2023-02-25T07:07:23;20.30;;;3.45;;
22439;SDS011;11387;51.612;7.210;2023-02-25T07:09:52;19.55;;;3.30;;
22439;SDS011;11387;51.612;7.210;2023-02-25T07:12:21;19.40;;;3.65;;
22439;SDS011;11387;51.612;7.210;2023-02-25T07:14:50;19.70;;;3.85;;
22439;SDS011;11387;51.612;7.210;2023-02-25T07:17:19;20.50;;;4.10;;
22439;SDS011;11387;51.612;7.210;2023-02-25T07:19:48;20.55;;;3.75;;
22439;SDS011;11387;51.612;7.210;2023-02-25T07:22:19;21.75;;;3.80;;
22439;SDS011;11387;51.612;7.210;2023-02-25T07:24:50;19.67;;;3.38;;
22439;SDS011;11387;51.612;7.210;2023-02-25T07:27:20;21.77;;;4.95;;
22439;SDS011;11387;51.612;7.210;2023-02-25T07:29:55;20.77;;;5.80;;
22439;SDS011;11387;51.612;7.210;2023-02-25T07:32:31;28.90;;;3.60;;
22439;SDS011;11387;51.612;7.210;2023-02-25T07:35:00;24.60;;;3.92;;
22439;SDS011;11387;51.612;7.210;2023-02-25T07:37:30;27.58;;;4.20;;
22439;SDS011;11387;51.612;7.210;2023-02-25T07:39:59;24.50;;;5.55;;
22439;SDS011;11387;51.612;7.210;2023-02-25T07:42:29;22.40;;;3.55;;
22439;SDS011;11387;51.612;7.210;2023-02-25T07:44:58;24.42;;;4.95;;
22439;SDS011;11387;51.612;7.210;2023-02-25T07:47:28;28.08;;;3.70;;
22439;SDS011;11387;51.612;7.210;2023-02-25T07:49:57;23.88;;;4.40;;
22439;SDS011;11387;51.612;7.210;2023-02-25T07:52:25;30.85;;;5.22;;
22439;SDS011;11387;51.612;7.210;2023-02-25T07:54:54;22.60;;;4.85;;
22439;SDS011;11387;51.612;7.210;2023-02-25T07:57:22;27.50;;;4.10;;
22439;SDS011;11387;51.612;7.210;2023-02-25T07:59:52;24.02;;;4.28;;
22439;SDS011;11387;51.612;7.210;2023-02-25T08:02:20;27.40;;;4.22;;
22439;SDS011;11387;51.612;7.210;2023-02-25T08:04:49;19.90;;;3.83;;
22439;SDS011;11387;51.612;7.210;2023-02-25T08:07:18;25.52;;;4.82;;
22439;SDS011;11387;51.612;7.210;2023-02-25T08:09:47;32.63;;;5.50;;
22439;SDS011;11387;51.612;7.210;2023-02-25T08:12:16;34.30;;;5.13;;
22439;SDS011;11387;51.612;7.210;2023-02-25T08:14:44;19.80;;;3.65;;
22439;SDS011;11387;51.612;7.210;2023-02-25T08:17:14;26.20;;;3.70;;
22439;SDS011;11387;51.612;7.210;2023-02-25T08:19:42;27.88;;;5.07;;
22439;SDS011;11387;51.612;7.210;2023-02-25T08:22:11;22.67;;;4.32;;
22439;SDS011;11387;51.612;7.210;2023-02-25T08:24:39;15.15;;;3.50;;
22439;SDS011;11387;51.612;7.210;2023-02-25T08:27:08;27.08;;;4.95;;
22439;SDS011;11387;51.612;7.210;2023-02-25T08:29:37;21.75;;;3.97;;
22439;SDS011;11387;51.612;7.210;2023-02-25T08:32:06;21.10;;;3.45;;
22439;SDS011;11387;51.612;7.210;2023-02-25T08:34:36;19.77;;;3.63;;
22439;SDS011;11387;51.612;7.210;2023-02-25T08:37:07;18.02;;;3.42;;
22439;SDS011;11387;51.612;7.210;2023-02-25T08:39:37;17.88;;;3.00;;
22439;SDS011;11387;51.612;7.210;2023-02-25T08:42:05;12.63;;;2.05;;
22439;SDS011;11387;51.612;7.210;2023-02-25T08:44:34;15.93;;;4.60;;
22439;SDS011;11387;51.612;7.210;2023-02-25T08:47:03;11.27;;;3.25;;
22439;SDS011;11387;51.612;7.210;2023-02-25T08:49:31;18.70;;;3.22;;
22439;SDS011;11387;51.612;7.210;2023-02-25T08:52:01;16.33;;;2.60;;
22439;SDS011;11387;51.612;7.210;2023-02-25T08:54:29;9.65;;;2.25;;
22439;SDS011;11387;51.612;7.210;2023-02-25T08:56:58;12.38;;;2.53;;
22439;SDS011;11387;51.612;7.210;2023-02-25T08:59:27;12.88;;;2.30;;
22439;SDS011;11387;51.612;7.210;2023-02-25T09:02:02;11.05;;;2.45;;
22439;SDS011;11387;51.612;7.210;2023-02-25T09:04:32;10.18;;;1.77;;
22439;SDS011;11387;51.612;7.210;2023-02-25T09:07:03;9.10;;;2.13;;
22439;SDS011;11387;51.612;7.210;2023-02-25T09:09:31;10.65;;;1.92;;
22439;SDS011;11387;51.612;7.210;2023-02-25T09:12:00;9.98;;;2.13;;
22439;SDS011;11387;51.612;7.210;2023-02-25T09:14:31;15.43;;;2.53;;
22439;SDS011;11387;51.612;7.210;2023-02-25T09:17:01;12.50;;;2.92;;
22439;SDS011;11387;51.612;7.210;2023-02-25T09:19:32;13.02;;;2.38;;
22439;SDS011;11387;51.612;7.210;2023-02-25T09:22:06;15.00;;;2.03;;
22439;SDS011;11387;51.612;7.210;2023-02-25T09:24:35;9.93;;;2.10;;
22439;SDS011;11387;51.612;7.210;2023-02-25T09:27:04;9.98;;;1.98;;
22439;SDS011;11387;51.612;7.210;2023-02-25T09:29:34;10.45;;;2.47;;
22439;SDS011;11387;51.612;7.210;2023-02-25T09:32:04;10.13;;;2.20;;
22439;SDS011;11387;51.612;7.210;2023-02-25T09:34:33;14.68;;;2.05;;
22439;SDS011;11387;51.612;7.210;2023-02-25T09:37:03;12.30;;;2.30;;
22439;SDS011;11387;51.612;7.210;2023-02-25T09:39:34;12.07;;;2.00;;
22439;SDS011;11387;51.612;7.210;2023-02-25T09:42:05;9.27;;;2.83;;
22439;SDS011;11387;51.612;7.210;2023-02-25T09:44:38;14.25;;;1.80;;
22439;SDS011;11387;51.612;7.210;2023-02-25T09:47:11;9.15;;;1.95;;
22439;SDS011;11387;51.612;7.210;2023-02-25T09:49:46;7.68;;;1.75;;
22439;SDS011;11387;51.612;7.210;2023-02-25T09:52:20;9.65;;;1.83;;
22439;SDS011;11387;51.612;7.210;2023-02-25T09:54:57;9.40;;;1.70;;
22439;SDS011;11387;51.612;7.210;2023-02-25T09:57:30;8.52;;;1.63;;
22439;SDS011;11387;51.612;7.210;2023-02-25T10:00:05;3.58;;;1.20;;
22439;SDS011;11387;51.612;7.210;2023-02-25T10:02:44;7.97;;;1.63;;
22439;SDS011;11387;51.612;7.210;2023-02-25T10:05:20;9.63;;;1.63;;
22439;SDS011;11387;51.612;7.210;2023-02-25T10:07:58;8.57;;;1.30;;
22439;SDS011;11387;51.612;7.210;2023-02-25T10:10:37;6.10;;;1.48;;
22439;SDS011;11387;51.612;7.210;2023-02-25T10:13:19;5.18;;;0.95;;
22439;SDS011;11387;51.612;7.210;2023-02-25T10:15:57;5.85;;;1.50;;
22439;SDS011;11387;51.612;7.210;2023-02-25T10:18:38;6.55;;;0.85;;
22439;SDS011;11387;51.612;7.210;2023-02-25T10:21:18;5.63;;;1.30;;
22439;SDS011;11387;51.612;7.210;2023-02-25T10:24:01;3.80;;;0.68;;
22439;SDS011;11387;51.612;7.210;2023-02-25T10:26:45;3.67;;;0.93;;
22439;SDS011;11387;51.612;7.210;2023-02-25T10:29:20;7.00;;;0.80;;
22439;SDS011;11387;51.612;7.210;2023-02-25T10:31:55;4.65;;;1.15;;
22439;SDS011;11387;51.612;7.210;2023-02-25T10:34:27;4.60;;;1.20;;
22439;SDS011;11387;51.612;7.210;2023-02-25T10:36:57;6.40;;;1.23;;
22439;SDS011;11387;51.612;7.210;2023-02-25T10:39:27;8.82;;;1.45;;
22439;SDS011;11387;51.612;7.210;2023-02-25T10:41:58;6.10;;;1.60;;
22439;SDS011;11387;51.612;7.210;2023-02-25T10:44:27;4.07;;;1.08;;
22439;SDS011;11387;51.612;7.210;2023-02-25T10:46:57;8.32;;;1.63;;
22439;SDS011;11387;51.612;7.210;2023-02-25T10:49:29;9.50;;;1.45;;
22439;SDS011;11387;51.612;7.210;2023-02-25T10:52:05;7.22;;;1.80;;
22439;SDS011;11387;51.612;7.210;2023-02-25T10:54:44;5.68;;;1.67;;
22439;SDS011;11387;51.612;7.210;2023-02-25T10:57:16;10.60;;;1.95;;
22439;SDS011;11387;51.612;7.210;2023-02-25T10:59:57;6.03;;;1.98;;
22439;SDS011;11387;51.612;7.210;2023-02-25T11:02:27;10.88;;;1.65;;
22439;SDS011;11387;51.612;7.210;2023-02-25T11:04:57;9.35;;;1.83;;
22439;SDS011;11387;51.612;7.210;2023-02-25T11:07:29;11.60;;;2.03;;
22439;SDS011;11387;51.612;7.210;2023-02-25T11:10:07;11.13;;;1.90;;
22439;SDS011;11387;51.612;7.210;2023-02-25T11:12:43;11.98;;;1.85;;
22439;SDS011;11387;51.612;7.210;2023-02-25T11:20:48;11.85;;;2.30;;
22439;SDS011;11387;51.612;7.210;2023-02-25T11:23:21;8.93;;;2.03;;
22439;SDS011;11387;51.612;7.210;2023-02-25T11:25:54;8.93;;;2.25;;
22439;SDS011;11387;51.612;7.210;2023-02-25T11:28:29;8.35;;;2.30;;
22439;SDS011;11387;51.612;7.210;2023-02-25T11:31:04;5.40;;;2.17;;
22439;SDS011;11387;51.612;7.210;2023-02-25T11:33:38;8.00;;;1.48;;
22439;SDS011;11387;51.612;7.210;2023-02-25T11:36:09;9.13;;;1.73;;
22439;SDS011;11387;51.612;7.210;2023-02-25T11:38:40;7.50;;;1.38;;
22439;SDS011;11387;51.612;7.210;2023-02-25T11:41:15;6.93;;;1.58;;
22439;SDS011;11387;51.612;7.210;2023-02-25T11:46:18;11.48;;;1.75;;
22439;SDS011;11387;51.612;7.210;2023-02-25T11:48:51;8.30;;;1.92;;
22439;SDS011;11387;51.612;7.210;2023-02-25T11:51:23;13.52;;;1.90;;
22439;SDS011;11387;51.612;7.210;2023-02-25T11:54:00;10.98;;;2.75;;
22439;SDS011;11387;51.612;7.210;2023-02-25T11:56:37;11.23;;;1.90;;
22439;SDS011;11387;51.612;7.210;2023-02-25T11:59:16;6.65;;;1.52;;
22439;SDS011;11387;51.612;7.210;2023-02-25T12:01:59;9.73;;;2.40;;
22439;SDS011;11387;51.612;7.210;2023-02-25T12:04:51;11.55;;;1.40;;
22439;SDS011;11387;51.612;7.210;2023-02-25T12:07:46;13.13;;;2.08;;
22439;SDS011;11387;51.612;7.210;2023-02-25T12:13:57;8.98;;;1.48;;
22439;SDS011;11387;51.612;7.210;2023-02-25T12:20:00;13.07;;;1.85;;
22439;SDS011;11387;51.612;7.210;2023-02-25T12:23:22;7.80;;;1.40;;
22439;SDS011;11387;51.612;7.210;2023-02-25T12:26:06;11.98;;;2.58;;
22439;SDS011;11387;51.612;7.210;2023-02-25T12:28:51;8.45;;;1.92;;
22439;SDS011;11387;51.612;7.210;2023-02-25T12:37:40;7.45;;;1.58;;
22439;SDS011;11387;51.612;7.210;2023-02-25T12:40:26;4.97;;;1.40;;
22439;SDS011;11387;51.612;7.210;2023-02-25T12:43:09;5.10;;;1.15;;
22439;SDS011;11387;51.612;7.210;2023-02-25T12:45:57;9.82;;;1.80;;
22439;SDS011;11387;51.612;7.210;2023-02-25T12:48:51;8.15;;;1.85;;
22439;SDS011;11387;51.612;7.210;2023-02-25T12:54:35;5.72;;;1.90;;
22439;SDS011;11387;51.612;7.210;2023-02-25T12:57:30;8.73;;;1.55;;
22439;SDS011;11387;51.612;7.210;2023-02-25T13:00:28;8.38;;;1.48;;
22439;SDS011;11387;51.612;7.210;2023-02-25T13:06:28;9.80;;;1.52;;
22439;SDS011;11387;51.612;7.210;2023-02-25T13:09:31;7.18;;;1.38;;
22439;SDS011;11387;51.612;7.210;2023-02-25T13:12:18;7.53;;;1.80;;
22439;SDS011;11387;51.612;7.210;2023-02-25T13:15:01;7.00;;;2.03;;
22439;SDS011;11387;51.612;7.210;2023-02-25T13:17:41;7.55;;;2.05;;
22439;SDS011;11387;51.612;7.210;2023-02-25T13:23:21;5.55;;;1.15;;
22439;SDS011;11387;51.612;7.210;2023-02-25T13:26:05;9.32;;;1.20;;
22439;SDS011;11387;51.612;7.210;2023-02-25T13:32:01;4.90;;;1.48;;
22439;SDS011;11387;51.612;7.210;2023-02-25T13:34:43;5.82;;;1.80;;
22439;SDS011;11387;51.612;7.210;2023-02-25T13:37:23;5.82;;;1.10;;
22439;SDS011;11387;51.612;7.210;2023-02-25T13:40:10;9.30;;;2.35;;
22439;SDS011;11387;51.612;7.210;2023-02-25T13:43:10;2.70;;;1.00;;
22439;SDS011;11387;51.612;7.210;2023-02-25T13:45:46;4.85;;;1.10;;
22439;SDS011;11387;51.612;7.210;2023-02-25T13:48:40;5.28;;;1.20;;
22439;SDS011;11387;51.612;7.210;2023-02-25T13:54:51;3.83;;;0.95;;
22439;SDS011;11387;51.612;7.210;2023-02-25T14:00:31;7.25;;;1.33;;
22439;SDS011;11387;51.612;7.210;2023-02-25T14:03:23;4.18;;;0.93;;
22439;SDS011;11387;51.612;7.210;2023-02-25T14:06:17;4.85;;;1.23;;
22439;SDS011;11387;51.612;7.210;2023-02-25T14:09:02;4.22;;;0.80;;
22439;SDS011;11387;51.612;7.210;2023-02-25T14:11:42;5.75;;;1.20;;
22439;SDS011;11387;51.612;7.210;2023-02-25T14:14:37;3.30;;;0.80;;
22439;SDS011;11387;51.612;7.210;2023-02-25T14:17:33;3.38;;;0.98;;
22439;SDS011;11387;51.612;7.210;2023-02-25T14:20:17;3.55;;;1.13;;
22439;SDS011;11387;51.612;7.210;2023-02-25T14:22:57;2.60;;;0.90;;
22439;SDS011;11387;51.612;7.210;2023-02-25T14:25:35;4.75;;;1.48;;
22439;SDS011;11387;51.612;7.210;2023-02-25T14:28:13;6.45;;;1.33;;
22439;SDS011;11387;51.612;7.210;2023-02-25T14:30:57;4.18;;;0.70;;
22439;SDS011;11387;51.612;7.210;2023-02-25T14:33:38;3.45;;;1.02;;
22439;SDS011;11387;51.612;7.210;2023-02-25T14:36:24;6.75;;;1.00;;
22439;SDS011;11387;51.612;7.210;2023-02-25T14:39:05;2.83;;;0.90;;
22439;SDS011;11387;51.612;7.210;2023-02-25T14:41:52;4.93;;;1.08;;
22439;SDS011;11387;51.612;7.210;2023-02-25T14:44:33;3.50;;;0.90;;
22439;SDS011;11387;51.612;7.210;2023-02-25T14:47:09;4.43;;;0.80;;
22439;SDS011;11387;51.612;7.210;2023-02-25T14:49:42;5.15;;;1.27;;
22439;SDS011;11387;51.612;7.210;2023-02-25T14:52:37;6.60;;;0.88;;
22439;SDS011;11387;51.612;7.210;2023-02-25T14:55:23;6.18;;;1.30;;
22439;SDS011;11387;51.612;7.210;2023-02-25T15:01:19;1.98;;;0.60;;
22439;SDS011;11387;51.612;7.210;2023-02-25T15:04:19;4.88;;;0.70;;
22439;SDS011;11387;51.612;7.210;2023-02-25T15:07:08;2.88;;;0.70;;
22439;SDS011;11387;51.612;7.210;2023-02-25T15:13:05;6.63;;;1.15;;
22439;SDS011;11387;51.612;7.210;2023-02-25T15:16:02;10.65;;;1.02;;
22439;SDS011;11387;51.612;7.210;2023-02-25T15:24:45;9.23;;;0.98;;
22439;SDS011;11387;51.612;7.210;2023-02-25T15:27:30;5.50;;;1.65;;
22439;SDS011;11387;51.612;7.210;2023-02-25T15:30:09;3.40;;;0.88;;
22439;SDS011;11387;51.612;7.210;2023-02-25T15:32:48;7.13;;;1.40;;
22439;SDS011;11387;51.612;7.210;2023-02-25T15:35:20;6.65;;;1.52;;
22439;SDS011;11387;51.612;7.210;2023-02-25T15:40:41;9.73;;;1.33;;
22439;SDS011;11387;51.612;7.210;2023-02-25T15:49:20;4.13;;;0.95;;
22439;SDS011;11387;51.612;7.210;2023-02-25T15:51:55;6.32;;;1.10;;
22439;SDS011;11387;51.612;7.210;2023-02-25T15:54:46;6.57;;;1.02;;
22439;SDS011;11387;51.612;7.210;2023-02-25T15:57:36;7.85;;;1.35;;
22439;SDS011;11387;51.612;7.210;2023-02-25T16:03:24;5.40;;;0.80;;
22439;SDS011;11387;51.612;7.210;2023-02-25T16:06:08;2.95;;;0.70;;
22439;SDS011;11387;51.612;7.210;2023-02-25T16:08:41;6.50;;;1.30;;
22439;SDS011;11387;51.612;7.210;2023-02-25T16:11:29;7.78;;;1.77;;
22439;SDS011;11387;51.612;7.210;2023-02-25T16:14:02;7.25;;;2.17;;
22439;SDS011;11387;51.612;7.210;2023-02-25T16:16:34;8.35;;;1.77;;
22439;SDS011;11387;51.612;7.210;2023-02-25T16:19:06;10.98;;;3.58;;
22439;SDS011;11387;51.612;7.210;2023-02-25T16:21:43;5.85;;;1.48;;
22439;SDS011;11387;51.612;7.210;2023-02-25T16:24:15;5.32;;;0.90;;
22439;SDS011;11387;51.612;7.210;2023-02-25T16:26:49;7.72;;;2.88;;
22439;SDS011;11387;51.612;7.210;2023-02-25T16:29:33;8.20;;;1.75;;
22439;SDS011;11387;51.612;7.210;2023-02-25T16:32:16;4.38;;;1.75;;
22439;SDS011;11387;51.612;7.210;2023-02-25T16:34:54;5.40;;;1.70;;